Saturday, September 22, 2018, 9:02 AM EDT
Back to Local

KPWM, Portland International Jetport

Location: Portland, ME, United States Lat: 43.65
Local Time: 9:02 AM EDT (13:02 GMT) Lon: -70.3
Time Zone: US/Eastern Elev: 75 ft

Show me the last for .
Show Decoded

2018-09-22 08:51 METAR KPWM 221251Z 30011G23KT 10SM FEW025 SCT130 BKN200 19/09 A2996 RMK AO2 PK
                 WND 29028/1217 SLP144 T01940094 =
2018-09-22 07:51 METAR KPWM 221151Z 30013G18KT 10SM SCT130 BKN200 19/11 A2991 RMK AO2 PK WND
                 33028/1057 SLP126 60001 70001 T01890111 10217 20189 53048 =
2018-09-22 06:51 METAR KPWM 221051Z 28016G20KT 10SM SCT025 BKN130 21/17 A2985 RMK AO2 PRESRR
                 SLP106 T02060167 =
2018-09-22 05:51 METAR KPWM 220951Z 24013KT 10SM BKN080 21/18 A2979 RMK AO2 SLP087 T02110183 =
2018-09-22 04:51 METAR KPWM 220851Z 23007KT 10SM BKN130 21/18 A2976 RMK AO2 SLP078 60001
                 T02060183 55006 =
2018-09-22 03:51 METAR KPWM 220751Z 23006KT 10SM SCT034 OVC044 21/18 A2976 RMK AO2 SLP076
                 T02060183 =
2018-09-22 03:21 METAR KPWM 220721Z 22011G20KT 10SM SCT028 SCT048 BKN110 20/18 A2976 RMK AO2
                 T02000178 =
2018-09-22 03:06 METAR KPWM 220706Z 23010G18KT 10SM BKN026 BKN034 OVC120 20/18 A2976 RMK AO2
                 T02000178 =
2018-09-22 02:51 METAR KPWM 220651Z 21007G20KT 10SM SCT023 OVC031 20/18 A2976 RMK AO2 RAE33
                 SLP077 P0001 T02000178 =
2018-09-22 01:51 METAR KPWM 220551Z 20009G18KT 10SM -RA OVC020 19/17 A2978 RMK AO2 RAB47 SLP085
                 P0000 60000 T01940172 10200 20178 56033 =
2018-09-22 00:51 METAR KPWM 220451Z 20006KT 10SM OVC018 19/16 A2982 RMK AO2 SLP096 T01890161
                 401890117 =
2018-09-21 23:51 METAR KPWM 220351Z 20008G17KT 10SM OVC019 18/16 A2984 RMK AO2 SLP103 LAST
                 T01830156 =
2018-09-21 22:51 METAR KPWM 220251Z 20009KT 10SM OVC020 18/15 A2988 RMK AO2 SLP117 T01780150
                 58022 =
2018-09-21 21:58 METAR KPWM 220158Z 20010G20KT 10SM OVC024 18/14 A2991 RMK AO2 T01780144 =
2018-09-21 21:51 METAR KPWM 220151Z 19010G18KT 10SM OVC031 18/14 A2991 RMK AO2 SLP128 T01780144 =
2018-09-21 20:51 METAR KPWM 220051Z 18014G21KT 10SM OVC031 18/15 A2992 RMK AO2 PK WND 18026/0000
                 SLP130 T01780150 =
2018-09-21 19:51 METAR KPWM 212351Z 18014G20KT 10SM OVC034 18/14 A2994 RMK AO2 SLP139 T01780144
                 10178 20167 56037 =
2018-09-21 18:51 METAR KPWM 212251Z 19011G19KT 10SM OVC034 17/14 A2997 RMK AO2 SLP149 T01720144 =
2018-09-21 17:51 METAR KPWM 212151Z 19015G21KT 10SM FEW017 OVC039 17/14 A3001 RMK AO2 SLP163
                 T01720139 =
2018-09-21 16:51 METAR KPWM 212051Z 19010G20KT 10SM SCT017 OVC040 17/14 A3005 RMK AO2 SLP176
                 T01670139 56038 =
2018-09-21 15:51 METAR KPWM 211951Z 18009G18KT 10SM SCT025 OVC044 17/13 A3009 RMK AO2 SLP190
                 T01670128 =
2018-09-21 14:51 METAR KPWM 211851Z 17011G20KT 10SM SCT025 OVC044 17/13 A3011 RMK AO2 SLP197
                 T01720128 =
2018-09-21 13:51 METAR KPWM 211751Z 18010G18KT 10SM SCT025 OVC050 18/13 A3016 RMK AO2 SLP214
                 T01780128 10189 20144 58030 =
2018-09-21 12:51 METAR KPWM 211651Z 18012G20KT 10SM FEW035 OVC050 18/12 A3020 RMK AO2 SLP226
                 T01780117 =
2018-09-21 11:51 METAR KPWM 211551Z 17011KT 10SM FEW030 SCT060 BKN120 OVC150 17/11 A3023 RMK AO2
                 SLP236 T01720111 =
2018-09-21 10:51 METAR KPWM 211451Z 18010G18KT 10SM FEW030 SCT050 OVC150 18/11 A3025 RMK AO2
                 SLP244 T01780111 58015 =
2018-09-21 09:51 METAR KPWM 211351Z 16008KT 10SM SCT055 OVC090 17/12 A3028 RMK AO2 SLP254
                 T01670117 =

Support USWX by starting your Amazon purchase here.